Aeroporto :
LOGIN :

Iscrizione | Disclaimer

   EN    FR    IT 

 










Sommario :    VFR   VFR Marginale   IFR   IFR Intensivo   IFR Molto Intensivo
Visibilità : 
Base nubi : 
>= 8 km
>= 3000ft
5 / 8 km
1000 / 3000 ft
1500m / 5 km
500 / 1000 ft
800 / 1500m
200 / 500 ft
< 800m
< 200 ft
Simboli :   Temporali  Nebbia  Neve Forte  Precipitazioni Forti  Vento > 20 kt
SIGMETs :   Varie  Temporali  Ghiacco  Turbolenza  Onda orograficha  Ceneri Vulcaniche






- Altitudine del aeroporto : 289 ft
- Codice IATA : ZAD


LDZD - Zadar

ULTIMO METAR :
  • 031030Z VRB02KT 9999 -RA FEW022 OVC040 10/09 Q1006 NOSIG

METARs OBSOLETI :
  • 031000Z 32006KT 280V350 9999 -RA FEW022 OVC040 10/09 Q1006 NOSIG
  • 030930Z 34004KT 9999 -RA FEW022 OVC040 10/10 Q1007 NOSIG
  • 030900Z 01004KT 340V050 8000 -RA FEW012 OVC030 10/10 Q1007 TEMPO 4000 RA
  • 030830Z 35003KT 320V020 5000 -RA FEW012 OVC030 10/09 Q1007 TEMPO 4000 RA
  • 030800Z 16003KT 120V200 3000 BR MIFG FEW010 13/12 Q1024 BECMG 8000 NSW

TAF TAF LDZD
Valido dal 03 a 06 ore il 04 a 06 ore UTC


030525Z 0306/0406 31006KT 6000 BKN020 TX10/0312Z TN04/0401Z
TEMPO 0306/0318 3000 RA BKN012
PROB30
TEMPO 0400/0406 4000 BR



MetMap, La meteo Aeronautica in un colpo d'occhio ! - Copyright ORBIFLY Dicembre 2007 - Disclaimer

ORBIFLY MET'MAP TEAM :

Programmazione e sviluppo : Alexandra Zaïnal
Concezione : Baudouin d'Aumeries
Aiuto per la programmazione : Marc-Olivier Méhu
Supporto tecnico e logistico : Manuel Goepfert
Aiuto per la traduzione : Arnaldo La Scala

Contatto : metmap@orbifly.com




FONTI E CREDITI :

   NOAA